Time;durP1;ratioP1;P1;durP2;ratioP2;P2;SDS_P1;SDS_P2;PMS_P1;PMS_P2;Temp;Humidity;BMP_temperature;BMP_pressure;BME280_temperature;BME280_humidity;BME280_pressure;Samples;Min_cycle;Max_cycle;Signal;HPM_P1;HPM_P2
2022/06/11 00:01:38;;;;;;;;;6.00;5.00;;;;;19.41;49.46;99675.69;5068159;28;45453;-62
2022/06/11 00:04:07;;;;;;;;;9.50;7.75;;;;;19.40;49.30;99676.66;5063570;28;45474;-62
2022/06/11 00:06:37;;;;;;;;;5.00;5.00;;;;;19.37;49.31;99670.66;5065789;28;45578;-61
2022/06/11 00:09:05;;;;;;;;;2.80;2.80;;;;;19.32;49.17;99680.78;5066354;28;45388;-62
2022/06/11 00:11:30;;;;;;;;;3.50;3.50;;;;;19.27;48.78;99677.59;5067162;28;45392;-62
2022/06/11 00:13:55;;;;;;;;;4.25;3.75;;;;;19.23;49.25;99686.78;5073743;28;45346;-61
2022/06/11 00:16:23;;;;;;;;;5.00;3.00;;;;;19.14;49.74;99686.41;5063804;28;45439;-61
2022/06/11 00:18:51;;;;;;;;;2.60;2.60;;;;;19.08;49.20;99681.47;5062177;28;45554;-61
2022/06/11 00:21:17;;;;;;;;;4.00;3.00;;;;;19.07;49.76;99686.94;5066316;28;45482;-61
2022/06/11 00:23:43;;;;;;;;;4.00;4.00;;;;;19.03;49.63;99683.59;5073229;28;45392;-61
2022/06/11 00:26:10;;;;;;;;;2.00;2.00;;;;;19.00;49.75;99685.59;5066044;28;45500;-62
2022/06/11 00:28:36;;;;;;;;;3.80;3.80;;;;;18.92;50.03;99683.44;5072014;28;45454;-61
2022/06/11 00:31:03;;;;;;;;;2.50;2.50;;;;;18.82;50.62;99687.66;5062711;28;45539;-62
2022/06/11 00:33:29;;;;;;;;;5.00;4.00;;;;;18.76;50.54;99685.41;5069366;28;45554;-62
2022/06/11 00:35:54;;;;;;;;;8.50;5.50;;;;;18.76;50.53;99688.06;5063213;28;46197;-62
2022/06/11 00:38:20;;;;;;;;;5.50;3.50;;;;;18.77;50.87;99689.75;5063089;28;45475;-62
2022/06/11 00:40:49;;;;;;;;;4.75;2.75;;;;;18.77;50.48;99677.25;5068855;28;45498;-62
2022/06/11 00:43:17;;;;;;;;;4.00;4.00;;;;;18.78;50.28;99684.31;5071127;28;45572;-61
2022/06/11 00:46:14;;;;;;;;;3.00;3.00;;;;;18.80;50.13;99678.88;5070580;28;45546;-61
2022/06/11 00:48:41;;;;;;;;;3.80;3.80;;;;;18.83;50.16;99682.22;5025265;28;45510;-61
2022/06/11 00:51:17;;;;;;;;;5.25;3.75;;;;;18.86;49.76;99685.66;5071451;28;45451;-62
2022/06/11 00:53:48;;;;;;;;;4.00;3.00;;;;;18.87;49.50;99682.03;5062642;28;45529;-62
2022/06/11 00:56:25;;;;;;;;;4.75;3.00;;;;;18.87;49.95;99677.53;5071022;28;45540;-62
2022/06/11 00:58:54;;;;;;;;;3.00;3.00;;;;;18.89;49.92;99689.00;5063375;28;45417;-62
2022/06/11 01:01:22;;;;;;;;;3.25;3.25;;;;;18.90;49.83;99685.38;5049293;28;45369;-61
2022/06/11 01:03:52;;;;;;;;;2.50;2.00;;;;;18.91;49.76;99683.56;5075043;28;45419;-62
2022/06/11 01:06:23;;;;;;;;;3.25;3.25;;;;;18.90;50.06;99685.38;5066174;28;46315;-62
2022/06/11 01:09:02;;;;;;;;;4.00;4.00;;;;;18.90;49.64;99680.03;5073958;28;45471;-63
2022/06/11 01:11:45;;;;;;;;;3.75;3.75;;;;;18.86;49.62;99682.97;5071692;28;45365;-63
2022/06/11 01:14:39;;;;;;;;;6.50;4.75;;;;;18.78;51.36;99684.31;5062742;28;45675;-63
2022/06/11 01:17:08;;;;;;;;;2.75;2.75;;;;;18.72;51.01;99694.56;5071751;28;45523;-63
2022/06/11 01:19:39;;;;;;;;;4.00;4.00;;;;;18.66;51.06;99697.63;5075899;28;45503;-63
2022/06/11 01:22:29;;;;;;;;;1.00;1.00;;;;;18.60;51.30;99698.03;5075145;28;45393;-63
2022/06/11 01:25:20;;;;;;;;;3.00;3.00;;;;;18.50;51.21;99695.03;5054953;28;45660;-63
2022/06/11 01:28:03;;;;;;;;;4.00;4.00;;;;;18.42;51.69;99692.88;5065669;28;45671;-63
2022/06/11 01:30:34;;;;;;;;;4.00;2.80;;;;;18.37;51.58;99694.09;5070984;28;45439;-63
2022/06/11 01:33:25;;;;;;;;;4.25;4.25;;;;;18.32;52.14;99699.72;5063406;28;45413;-63
2022/06/11 01:36:06;;;;;;;;;4.25;3.25;;;;;18.29;52.40;99697.25;5052212;28;45595;-63
2022/06/11 01:38:38;;;;;;;;;3.00;3.00;;;;;18.26;52.39;99704.59;5069617;28;45443;-63
2022/06/11 01:41:31;;;;;;;;;2.80;2.80;;;;;18.21;52.51;99707.56;5073431;28;45409;-62
2022/06/11 01:44:13;;;;;;;;;4.00;4.00;;;;;18.16;52.02;99696.28;5068530;28;45408;-63
2022/06/11 01:46:46;;;;;;;;;3.25;3.25;;;;;18.12;52.63;99700.94;5071487;28;45306;-63
2022/06/11 01:49:20;;;;;;;;;3.50;3.50;;;;;18.08;52.48;99710.13;5076286;28;46528;-62
2022/06/11 01:51:55;;;;;;;;;7.00;6.00;;;;;18.03;52.95;99711.34;5067959;28;45346;-63
2022/06/11 01:54:32;;;;;;;;;6.25;6.25;;;;;17.98;52.88;99708.94;5067826;28;45421;-63
2022/06/11 01:57:16;;;;;;;;;6.50;6.50;;;;;17.96;53.00;99708.19;5063919;28;45326;-63
2022/06/11 02:00:08;;;;;;;;;3.25;3.25;;;;;17.94;53.02;99712.75;5066578;28;46406;-63
2022/06/11 02:02:55;;;;;;;;;1.60;1.60;;;;;17.93;53.05;99708.38;5056702;28;45488;-63
2022/06/11 02:05:44;;;;;;;;;6.00;6.00;;;;;17.88;53.70;99707.81;5072972;28;45577;-63
2022/06/11 02:08:21;;;;;;;;;6.75;5.00;;;;;17.84;54.31;99711.59;5074628;28;45425;-63
2022/06/11 02:11:09;;;;;;;;;9.75;6.75;;;;;17.83;54.72;99711.69;5069450;28;45585;-63
2022/06/11 02:13:42;;;;;;;;;7.00;5.25;;;;;17.84;54.72;99718.75;5062434;28;45705;-62
2022/06/11 02:16:10;;;;;;;;;7.00;6.25;;;;;17.82;55.21;99721.50;5075804;28;45420;-63
2022/06/11 02:18:37;;;;;;;;;14.75;12.50;;;;;17.82;55.34;99723.31;5055880;28;45756;-63
2022/06/11 02:21:09;;;;;;;;;6.75;6.50;;;;;17.80;54.88;99731.41;5075044;28;45483;-63
2022/06/11 02:23:41;;;;;;;;;4.00;4.00;;;;;17.78;54.21;99720.81;5071000;28;45417;-63
2022/06/11 02:26:22;;;;;;;;;4.50;4.50;;;;;17.73;54.20;99727.41;5052496;28;45341;-63
2022/06/11 02:28:51;;;;;;;;;3.75;3.75;;;;;17.70;54.27;99722.25;5067531;28;45306;-63
2022/06/11 02:31:23;;;;;;;;;3.00;3.00;;;;;17.65;54.24;99725.19;5066239;28;45443;-63
2022/06/11 02:33:50;;;;;;;;;3.40;3.40;;;;;17.61;54.08;99723.59;5072696;28;45396;-63
2022/06/11 02:36:27;;;;;;;;;3.75;2.75;;;;;17.59;54.35;99730.00;5066552;28;45434;-63
2022/06/11 02:38:54;;;;;;;;;3.00;3.00;;;;;17.55;53.77;99718.66;5056195;28;45470;-63
2022/06/11 02:41:26;;;;;;;;;3.75;2.75;;;;;17.55;54.20;99723.13;5071711;28;46400;-63
2022/06/11 02:43:52;;;;;;;;;3.00;2.40;;;;;17.51;54.31;99718.91;5073286;28;45492;-63
2022/06/11 02:49:03;;;;;;;;;2.00;2.00;;;;;17.45;54.55;99739.66;5073206;28;45353;-63
2022/06/11 02:51:30;;;;;;;;;3.50;3.50;;;;;17.42;54.56;99737.19;5070024;28;45423;-63
2022/06/11 02:53:57;;;;;;;;;5.60;4.00;;;;;17.40;54.76;99741.75;5071985;28;45377;-63
2022/06/11 02:56:22;;;;;;;;;4.50;4.00;;;;;17.38;54.57;99738.31;5072853;28;45522;-63
2022/06/11 02:58:48;;;;;;;;;4.50;3.00;;;;;17.39;55.01;99741.84;5070942;28;45601;-63
2022/06/11 03:01:14;;;;;;;;;2.00;2.00;;;;;17.39;55.12;99740.03;5073467;28;45395;-63
2022/06/11 03:03:40;;;;;;;;;3.80;3.80;;;;;17.39;54.92;99742.69;5074695;28;45495;-63
2022/06/11 03:06:05;;;;;;;;;4.00;4.00;;;;;17.39;54.97;99740.03;5071400;28;45577;-65
2022/06/11 03:08:32;;;;;;;;;4.00;3.75;;;;;17.39;54.70;99748.03;5073411;28;45498;-63
2022/06/11 03:10:58;;;;;;;;;3.75;3.25;;;;;17.38;55.10;99743.63;5070781;28;46324;-63
2022/06/11 03:13:25;;;;;;;;;2.50;2.50;;;;;17.36;55.01;99750.00;5072285;28;45500;-63
2022/06/11 03:15:51;;;;;;;;;4.00;3.75;;;;;17.34;55.07;99749.22;5072106;28;45461;-63
2022/06/11 03:18:17;;;;;;;;;3.00;3.00;;;;;17.32;55.30;99751.97;5071964;28;45519;-63
2022/06/11 03:20:43;;;;;;;;;5.00;4.50;;;;;17.31;55.17;99762.72;5068680;28;46363;-63
2022/06/11 03:23:09;;;;;;;;;6.00;6.00;;;;;17.29;55.38;99757.47;5074830;28;45451;-63
2022/06/11 03:25:35;;;;;;;;;4.50;4.50;;;;;17.29;55.87;99754.81;5069310;28;45528;-63
2022/06/11 03:28:16;;;;;;;;;6.00;6.00;;;;;17.28;55.89;99754.91;5073959;28;45531;-63
2022/06/11 03:30:42;;;;;;;;;4.50;4.25;;;;;17.25;55.75;99761.28;5074987;28;46399;-63
2022/06/11 03:33:07;;;;;;;;;5.75;5.00;;;;;17.22;55.78;99758.78;5070439;28;45315;-63
2022/06/11 03:35:33;;;;;;;;;5.00;5.00;;;;;17.23;55.96;99759.66;5069414;28;45562;-62
2022/06/11 03:38:00;;;;;;;;;6.25;6.00;;;;;17.22;56.03;99760.59;5067050;28;45506;-63
2022/06/11 03:40:25;;;;;;;;;5.75;5.00;;;;;17.22;55.90;99765.94;5070118;28;46058;-62
2022/06/11 03:42:51;;;;;;;;;5.00;5.00;;;;;17.21;55.78;99758.88;5065930;28;45382;-63
2022/06/11 03:45:17;;;;;;;;;4.00;4.00;;;;;17.20;55.71;99766.00;5072709;28;45633;-62
2022/06/11 03:47:43;;;;;;;;;6.50;6.50;;;;;17.19;55.92;99774.94;5075183;28;45582;-63
2022/06/11 03:50:18;;;;;;;;;5.50;5.00;;;;;17.18;55.80;99773.22;5073577;28;46439;-62
2022/06/11 03:52:44;;;;;;;;;6.50;6.50;;;;;17.18;56.46;99772.38;5067526;28;45510;-63
2022/06/11 03:55:09;;;;;;;;;8.75;6.75;;;;;17.17;56.64;99776.84;5065067;28;45611;-63
2022/06/11 03:57:35;;;;;;;;;6.00;5.00;;;;;17.15;56.66;99775.19;5068715;28;45380;-63
2022/06/11 04:00:04;;;;;;;;;6.50;6.00;;;;;17.14;56.87;99779.66;5070177;28;45928;-63
2022/06/11 04:02:30;;;;;;;;;7.25;7.25;;;;;17.12;57.04;99773.56;5064313;28;45420;-63
2022/06/11 04:04:55;;;;;;;;;7.75;7.50;;;;;17.13;57.19;99782.41;5072516;28;46058;-63
2022/06/11 04:07:21;;;;;;;;;7.00;6.50;;;;;17.10;57.39;99789.63;5071629;28;45572;-63
2022/06/11 04:09:46;;;;;;;;;8.25;7.75;;;;;17.09;57.61;99782.59;5061916;28;46309;-63
2022/06/11 04:12:15;;;;;;;;;6.25;6.25;;;;;17.09;57.53;99785.25;5072333;28;45521;-63
2022/06/11 04:14:43;;;;;;;;;5.50;5.00;;;;;17.10;57.74;99786.97;5055601;28;45495;-63
2022/06/11 04:17:14;;;;;;;;;5.00;5.00;;;;;17.12;57.90;99789.53;5046768;28;45449;-63
2022/06/11 04:19:43;;;;;;;;;4.75;4.75;;;;;17.13;58.12;99787.75;5041036;28;47386;-62
2022/06/11 04:22:09;;;;;;;;;5.20;5.00;;;;;17.12;58.18;99792.22;5051595;28;45374;-63
2022/06/11 04:24:34;;;;;;;;;6.50;5.50;;;;;17.11;58.39;99795.81;5055360;28;45361;-63
2022/06/11 04:27:04;;;;;;;;;8.00;7.25;;;;;17.13;58.38;99795.75;5054423;28;45490;-63
2022/06/11 04:29:32;;;;;;;;;6.25;5.25;;;;;17.15;58.69;99799.19;5044060;28;45621;-63
2022/06/11 04:32:00;;;;;;;;;5.50;5.50;;;;;17.15;58.59;99804.50;5025302;28;45421;-62
2022/06/11 04:34:27;;;;;;;;;5.25;5.25;;;;;17.15;58.75;99804.50;5056206;28;45281;-62
2022/06/11 04:36:53;;;;;;;;;11.00;7.50;;;;;17.16;58.65;99806.22;5041247;28;45626;-62
2022/06/11 04:39:22;;;;;;;;;7.00;6.00;;;;;17.15;58.60;99805.38;5040674;28;46397;-62
2022/06/11 04:41:48;;;;;;;;;5.25;5.25;;;;;17.17;58.85;99805.28;5052368;28;45319;-62
2022/06/11 04:44:14;;;;;;;;;6.50;4.75;;;;;17.18;58.15;99799.88;5044202;28;45471;-62
2022/06/11 04:46:40;;;;;;;;;5.75;5.00;;;;;17.19;58.52;99806.06;5055262;28;45492;-62
2022/06/11 04:49:05;;;;;;;;;5.00;5.00;;;;;17.21;58.29;99804.19;5047735;28;46066;-62
2022/06/11 04:51:31;;;;;;;;;6.50;6.50;;;;;17.22;58.37;99806.75;5050281;28;45453;-62
2022/06/11 04:53:56;;;;;;;;;6.00;5.25;;;;;17.25;58.73;99811.91;5055261;28;45832;-62
2022/06/11 04:56:24;;;;;;;;;8.00;5.75;;;;;17.30;58.35;99811.63;5051039;28;45519;-62
2022/06/11 04:58:51;;;;;;;;;6.50;6.25;;;;;17.33;58.73;99806.13;5053742;28;46406;-62
2022/06/11 05:01:18;;;;;;;;;8.75;8.00;;;;;17.34;58.67;99807.84;5052258;28;45476;-62
2022/06/11 05:03:43;;;;;;;;;6.00;6.00;;;;;17.35;58.63;99809.59;5055263;28;45472;-62
2022/06/11 05:06:12;;;;;;;;;8.00;6.00;;;;;17.35;58.33;99815.78;5051154;28;45387;-62
2022/06/11 05:08:37;;;;;;;;;3.00;2.00;;;;;17.39;58.59;99821.78;5056494;28;46286;-62
2022/06/11 05:11:05;;;;;;;;;7.00;7.00;;;;;17.42;58.78;99818.97;5046665;28;45531;-63
2022/06/11 05:13:30;;;;;;;;;8.00;6.25;;;;;17.44;58.99;99828.56;5057198;28;45384;-62
2022/06/11 05:15:58;;;;;;;;;7.50;6.00;;;;;17.48;58.94;99823.91;5047703;28;45416;-62
2022/06/11 05:18:24;;;;;;;;;7.25;6.25;;;;;17.52;59.08;99825.47;5057124;28;46051;-62
2022/06/11 05:20:50;;;;;;;;;6.20;6.20;;;;;17.56;58.63;99828.84;5051550;28;45421;-62
2022/06/11 05:23:16;;;;;;;;;7.50;7.50;;;;;17.56;58.74;99827.03;5056577;28;45367;-62
2022/06/11 05:25:43;;;;;;;;;4.50;4.50;;;;;17.58;58.80;99818.94;5053842;28;45476;-62
2022/06/11 05:28:15;;;;;;;;;5.00;5.00;;;;;17.56;57.61;99816.34;5052438;28;46454;-62
2022/06/11 05:30:41;;;;;;;;;5.20;4.20;;;;;17.56;57.23;99819.03;5047306;28;45480;-62
2022/06/11 05:33:07;;;;;;;;;2.50;2.50;;;;;17.59;57.40;99824.19;5048058;28;45422;-62
2022/06/11 05:35:35;;;;;;;;;4.00;4.00;;;;;17.62;57.18;99821.31;5044878;28;45452;-62
2022/06/11 05:38:03;;;;;;;;;6.25;5.25;;;;;17.66;57.19;99822.03;5050861;28;45486;-62
2022/06/11 05:40:34;;;;;;;;;4.25;4.25;;;;;17.70;56.80;99824.44;5052664;28;45424;-62
2022/06/11 05:42:59;;;;;;;;;6.25;5.00;;;;;17.72;56.96;99827.88;5052235;28;45446;-62
2022/06/11 05:45:34;;;;;;;;;6.00;5.25;;;;;17.77;57.24;99828.47;5051677;28;45409;-61
2022/06/11 05:47:59;;;;;;;;;7.00;5.50;;;;;17.88;57.03;99825.19;5055747;28;46125;-61
2022/06/11 05:50:31;;;;;;;;;7.00;6.50;;;;;17.95;56.68;99820.31;5044665;28;45706;-67
2022/06/11 05:52:58;;;;;;;;;4.75;4.25;;;;;18.05;56.80;99824.19;5046065;28;45323;-61
2022/06/11 05:55:27;;;;;;;;;6.75;5.25;;;;;18.11;56.34;99819.31;5049695;28;45399;-61
2022/06/11 05:57:55;;;;;;;;;6.00;4.50;;;;;18.18;56.85;99824.31;5050236;28;46252;-60
2022/06/11 06:00:23;;;;;;;;;4.80;4.20;;;;;18.23;56.14;99824.91;5045917;28;45427;-60
2022/06/11 06:02:48;;;;;;;;;5.00;5.00;;;;;18.27;56.17;99821.94;5054534;28;45427;-60
2022/06/11 06:05:19;;;;;;;;;6.75;4.75;;;;;18.33;56.32;99837.59;5051694;28;45487;-62
2022/06/11 06:07:44;;;;;;;;;5.25;5.25;;;;;18.40;55.93;99830.94;5047728;28;46431;-60
2022/06/11 06:10:10;;;;;;;;;8.25;7.00;;;;;18.46;56.19;99835.03;5047970;28;45563;-63
2022/06/11 06:12:37;;;;;;;;;5.50;5.00;;;;;18.51;56.02;99835.59;5031717;28;45468;-62
2022/06/11 06:15:09;;;;;;;;;6.00;6.00;;;;;18.56;56.02;99838.88;5051717;28;45553;-62
2022/06/11 06:17:35;;;;;;;;;5.75;5.75;;;;;18.61;55.86;99841.25;5071299;28;46162;-62
2022/06/11 06:20:01;;;;;;;;;5.80;4.80;;;;;18.66;55.96;99840.03;5074079;28;45486;-62
2022/06/11 06:22:26;;;;;;;;;7.00;5.50;;;;;18.71;55.31;99837.09;5069088;28;45416;-62
2022/06/11 06:24:52;;;;;;;;;6.00;6.00;;;;;18.75;55.60;99841.28;5069014;28;45554;-63
2022/06/11 06:27:17;;;;;;;;;5.00;5.00;;;;;18.79;55.57;99840.13;5064406;28;46326;-62
2022/06/11 06:29:42;;;;;;;;;7.50;7.50;;;;;18.82;55.69;99837.28;5061442;28;45465;-61
2022/06/11 06:32:08;;;;;;;;;4.75;3.50;;;;;18.88;55.48;99839.56;5047734;28;45641;-61
2022/06/11 06:34:34;;;;;;;;;5.50;5.50;;;;;18.96;55.61;99839.06;5064886;28;45584;-62
2022/06/11 06:36:59;;;;;;;;;5.00;5.00;;;;;19.01;55.31;99834.31;5054273;28;47020;-61
2022/06/11 06:39:24;;;;;;;;;5.25;5.00;;;;;19.03;55.41;99835.94;5057610;28;45517;-61
2022/06/11 06:41:50;;;;;;;;;5.75;4.50;;;;;19.06;55.13;99832.22;5060760;28;45380;-62
2022/06/11 06:44:16;;;;;;;;;6.00;5.00;;;;;19.10;54.97;99831.88;5064038;28;45908;-61
2022/06/11 06:46:43;;;;;;;;;6.50;6.50;;;;;19.18;54.66;99831.41;5064301;28;45621;-62
2022/06/11 06:49:08;;;;;;;;;6.00;5.00;;;;;19.24;55.08;99828.38;5059281;28;45578;-62
2022/06/11 06:51:34;;;;;;;;;5.75;4.25;;;;;19.32;54.97;99825.19;5061921;28;45313;-61
2022/06/11 06:54:00;;;;;;;;;5.50;5.00;;;;;19.37;54.45;99823.94;5060086;28;45590;-62
2022/06/11 06:56:29;;;;;;;;;4.50;4.00;;;;;19.43;54.15;99820.00;5057768;28;45500;-62
2022/06/11 06:58:57;;;;;;;;;5.00;5.00;;;;;19.46;53.92;99825.13;5057890;28;45472;-62
2022/06/11 07:01:23;;;;;;;;;6.75;5.50;;;;;19.51;53.56;99826.59;5061379;28;45588;-61
2022/06/11 07:03:49;;;;;;;;;5.00;4.00;;;;;19.59;53.56;99822.56;5055313;28;45382;-62
2022/06/11 07:06:14;;;;;;;;;5.50;5.50;;;;;19.63;53.93;99822.25;5054448;28;46099;-61
2022/06/11 07:08:39;;;;;;;;;5.00;4.00;;;;;19.71;53.47;99821.75;5047896;28;45610;-62
2022/06/11 07:11:05;;;;;;;;;4.25;4.25;;;;;19.77;53.38;99818.69;5061046;28;46447;-62
2022/06/11 07:13:31;;;;;;;;;6.50;6.50;;;;;19.83;53.62;99820.91;5056241;28;45333;-61
2022/06/11 07:15:57;;;;;;;;;5.00;5.00;;;;;19.89;53.07;99825.00;5061744;28;45594;-62
2022/06/11 07:19:01;;;;;;;;;4.60;4.00;;;;;19.98;53.25;99827.06;5067273;28;45624;-61
2022/06/11 07:21:32;;;;;;;;;5.00;5.00;;;;;20.03;52.93;99819.59;4951970;28;45463;-61
2022/06/11 07:24:07;;;;;;;;;4.75;4.75;;;;;20.09;53.03;99814.69;5040217;28;45505;-61
2022/06/11 07:26:38;;;;;;;;;5.00;5.00;;;;;20.15;52.89;99810.72;5060828;28;46604;-62
2022/06/11 07:29:13;;;;;;;;;5.80;5.20;;;;;20.21;53.10;99803.13;5065282;28;45581;-61
2022/06/11 07:31:42;;;;;;;;;6.75;5.75;;;;;20.27;52.33;99796.50;5047713;28;45511;-62
2022/06/11 07:34:07;;;;;;;;;5.75;5.75;;;;;20.34;52.23;99803.13;5058540;28;45512;-62
2022/06/11 07:36:34;;;;;;;;;4.00;3.25;;;;;20.40;51.73;99789.34;5054455;28;46111;-61
2022/06/11 07:38:59;;;;;;;;;6.60;3.80;;;;;20.47;51.63;99803.16;5049338;28;45461;-61
2022/06/11 07:41:25;;;;;;;;;4.75;4.50;;;;;20.55;51.80;99795.44;5061796;28;45401;-60
2022/06/11 07:43:50;;;;;;;;;4.50;4.00;;;;;20.62;51.21;99795.84;5064425;28;45568;-60
2022/06/11 07:46:16;;;;;;;;;5.50;5.50;;;;;20.66;50.99;99790.19;5057931;28;45807;-59
2022/06/11 07:48:41;;;;;;;;;6.75;6.25;;;;;20.72;51.09;99787.09;5059535;28;45507;-59
2022/06/11 07:51:07;;;;;;;;;4.50;4.50;;;;;20.78;51.02;99791.16;5055816;28;45365;-60
2022/06/11 07:53:33;;;;;;;;;6.50;5.50;;;;;20.82;50.28;99782.75;5057088;28;45548;-59
2022/06/11 07:55:59;;;;;;;;;4.25;4.25;;;;;20.88;50.90;99789.53;5058266;28;46078;-59
2022/06/11 07:58:30;;;;;;;;;6.00;6.00;;;;;20.93;50.85;99790.06;5054795;28;46000;-60
2022/06/11 08:00:57;;;;;;;;;4.60;4.60;;;;;20.97;51.09;99794.19;5057543;28;45467;-61
2022/06/11 08:03:23;;;;;;;;;5.00;4.50;;;;;21.01;50.33;99790.34;5056338;28;45399;-60
2022/06/11 08:05:50;;;;;;;;;6.20;4.60;;;;;21.05;50.10;99786.47;5053551;28;46552;-60
2022/06/11 08:08:18;;;;;;;;;5.80;5.20;;;;;21.08;50.15;99780.91;5045750;28;45514;-60
2022/06/11 08:10:44;;;;;;;;;4.80;4.80;;;;;21.11;50.70;99785.19;5059669;28;45468;-58
2022/06/11 08:13:11;;;;;;;;;6.00;6.00;;;;;21.17;49.94;99777.53;5060546;28;45378;-59
2022/06/11 08:15:39;;;;;;;;;7.50;6.50;;;;;21.20;50.26;99774.66;5056406;28;45598;-59
2022/06/11 08:18:04;;;;;;;;;4.80;4.80;;;;;21.26;50.26;99769.81;5059468;28;45526;-60
2022/06/11 08:20:32;;;;;;;;;7.50;7.50;;;;;21.31;49.98;99767.63;5063767;28;45550;-60
2022/06/11 08:22:57;;;;;;;;;7.50;7.00;;;;;21.37;49.80;99768.06;5053314;28;45407;-60
2022/06/11 08:25:23;;;;;;;;;6.00;4.00;;;;;21.44;50.03;99765.78;5060035;28;46712;-59
2022/06/11 08:27:49;;;;;;;;;5.20;4.60;;;;;21.52;49.48;99771.41;5057513;28;45612;-60
2022/06/11 08:30:21;;;;;;;;;3.75;3.75;;;;;21.57;49.63;99763.88;5058294;28;45629;-59
2022/06/11 08:32:47;;;;;;;;;5.25;5.25;;;;;21.62;49.35;99768.91;5045524;28;45479;-60
2022/06/11 08:35:14;;;;;;;;;5.00;5.00;;;;;21.68;48.93;99758.56;5054429;28;47078;-60
2022/06/11 08:37:39;;;;;;;;;5.60;4.00;;;;;21.74;48.54;99757.25;5049392;28;46346;-60
2022/06/11 08:40:11;;;;;;;;;5.25;5.25;;;;;21.80;48.93;99762.13;5055133;28;45238;-59
2022/06/11 08:42:41;;;;;;;;;6.00;5.00;;;;;21.88;48.76;99760.59;5057563;28;45562;-59
2022/06/11 08:45:06;;;;;;;;;4.00;4.00;;;;;21.94;48.21;99757.44;5051869;28;45666;-60
2022/06/11 08:47:40;;;;;;;;;6.00;6.00;;;;;22.01;48.51;99757.84;5048618;28;45576;-60
2022/06/11 08:50:11;;;;;;;;;5.00;5.00;;;;;22.05;48.39;99745.03;5053928;28;45473;-60
2022/06/11 08:52:36;;;;;;;;;8.00;7.00;;;;;22.10;48.56;99754.47;5062432;28;45427;-60
2022/06/11 08:55:02;;;;;;;;;5.25;5.25;;;;;22.14;48.29;99752.38;5059065;28;46164;-59
2022/06/11 08:57:36;;;;;;;;;4.50;4.00;;;;;22.16;48.06;99751.28;5056679;28;45416;-60
2022/06/11 09:00:02;;;;;;;;;5.50;5.00;;;;;22.20;48.38;99757.28;5057787;28;45566;-60
2022/06/11 09:02:51;;;;;;;;;5.50;5.50;;;;;22.23;48.03;99749.84;5054044;28;45960;-60
2022/06/11 09:05:31;;;;;;;;;6.40;5.20;;;;;22.25;47.96;99745.22;5060638;28;46261;-60
2022/06/11 09:08:26;;;;;;;;;6.00;6.00;;;;;22.29;48.07;99748.47;5048662;28;45557;-61
2022/06/11 09:11:09;;;;;;;;;5.80;5.80;;;;;22.32;47.92;99748.25;5061242;28;45502;-60
2022/06/11 09:13:51;;;;;;;;;5.25;5.25;;;;;22.39;48.02;99745.94;5065504;28;45495;-61
2022/06/11 09:16:54;;;;;;;;;5.00;5.00;;;;;22.48;47.19;99745.22;5061975;28;45625;-60
2022/06/11 09:19:34;;;;;;;;;5.00;5.00;;;;;22.57;46.78;99741.81;5057654;28;45664;-61
2022/06/11 09:22:11;;;;;;;;;4.20;3.80;;;;;22.67;47.05;99734.69;5059377;28;45634;-61
2022/06/11 09:24:42;;;;;;;;;5.75;5.50;;;;;22.74;46.47;99733.25;5052096;28;45392;-60
2022/06/11 09:27:20;;;;;;;;;5.60;4.60;;;;;22.76;46.12;99733.13;5064960;28;46188;-60
2022/06/11 09:29:48;;;;;;;;;5.00;5.00;;;;;22.74;46.57;99729.69;5063654;28;45409;-61
2022/06/11 09:32:21;;;;;;;;;3.80;3.80;;;;;22.73;45.06;99728.00;5059425;28;45491;-60
2022/06/11 09:34:50;;;;;;;;;4.50;4.25;;;;;22.68;45.18;99728.34;5064772;28;45388;-61
2022/06/11 09:37:18;;;;;;;;;3.20;3.20;;;;;22.67;45.60;99732.00;5055903;28;46474;-60
2022/06/11 09:40:06;;;;;;;;;5.00;5.00;;;;;22.71;45.33;99736.19;5046129;28;45511;-61
2022/06/11 09:42:50;;;;;;;;;4.20;4.20;;;;;22.77;45.66;99730.34;5049345;28;45404;-60
2022/06/11 09:45:39;;;;;;;;;4.00;3.00;;;;;22.83;44.89;99719.06;5056363;28;45524;-61
2022/06/11 09:48:33;;;;;;;;;3.50;3.50;;;;;22.86;44.47;99726.03;5066733;28;46286;-60
2022/06/11 09:51:02;;;;;;;;;4.60;4.60;;;;;22.91;44.93;99723.84;5063099;28;45436;-60
2022/06/11 09:54:04;;;;;;;;;5.60;4.20;;;;;22.96;44.86;99716.25;5055432;28;45379;-60
2022/06/11 09:56:49;;;;;;;;;4.25;4.25;;;;;23.02;44.63;99712.19;5061756;28;45432;-60
2022/06/11 09:59:29;;;;;;;;;6.40;5.00;;;;;23.07;43.98;99715.38;5063005;28;45452;-60
2022/06/11 10:02:02;;;;;;;;;6.00;4.00;;;;;23.13;44.20;99717.53;5060722;28;45648;-60
2022/06/11 10:04:40;;;;;;;;;4.00;4.00;;;;;23.18;43.74;99718.03;5058499;28;45440;-60
2022/06/11 10:07:17;;;;;;;;;5.25;5.25;;;;;23.25;44.14;99706.66;5055787;28;45413;-60
2022/06/11 10:09:49;;;;;;;;;5.40;5.00;;;;;23.32;43.42;99707.81;5052114;28;45887;-60
2022/06/11 10:12:36;;;;;;;;;6.00;5.20;;;;;23.38;43.50;99702.91;5061549;28;45490;-61
2022/06/11 10:15:30;;;;;;;;;4.60;4.60;;;;;23.44;43.45;99700.59;5066268;28;45452;-61
2022/06/11 10:18:00;;;;;;;;;5.00;5.00;;;;;23.55;42.82;99697.00;5057982;28;45473;-60
2022/06/11 10:20:39;;;;;;;;;2.80;2.80;;;;;23.62;43.24;99698.22;5057118;28;46520;-60
2022/06/11 10:23:42;;;;;;;;;4.00;4.00;;;;;23.70;42.80;99695.72;5059556;28;45461;-61
2022/06/11 10:26:15;;;;;;;;;5.20;4.80;;;;;23.79;43.00;99691.38;5058667;28;45628;-60
2022/06/11 10:28:49;;;;;;;;;4.20;4.20;;;;;23.85;43.00;99689.00;5062511;28;45541;-60
2022/06/11 10:31:20;;;;;;;;;5.20;5.00;;;;;23.92;43.50;99683.97;5056831;28;45613;-60
2022/06/11 10:34:07;;;;;;;;;3.80;3.80;;;;;24.05;43.49;99686.44;5063823;28;45395;-61
2022/06/11 10:36:41;;;;;;;;;4.80;4.80;;;;;24.16;43.71;99676.41;5057568;28;45565;-61
2022/06/11 10:39:25;;;;;;;;;5.00;3.20;;;;;24.28;42.85;99680.78;5049892;28;45521;-61
2022/06/11 10:42:23;;;;;;;;;3.40;2.40;;;;;24.39;42.14;99682.53;5053431;28;45506;-61
2022/06/11 10:44:52;;;;;;;;;4.40;4.20;;;;;24.45;41.89;99679.31;5023583;28;45467;-60
2022/06/11 10:47:24;;;;;;;;;4.80;4.80;;;;;24.48;41.75;99676.31;5062008;28;45372;-61
2022/06/11 10:49:58;;;;;;;;;3.20;3.20;;;;;24.56;42.24;99676.50;5059944;28;45186;-61
2022/06/11 10:52:26;;;;;;;;;3.50;3.50;;;;;24.66;41.74;99684.59;5058378;28;46164;-61
2022/06/11 10:54:51;;;;;;;;;3.80;3.80;;;;;24.73;41.71;99675.00;5058248;28;45459;-61
2022/06/11 10:57:25;;;;;;;;;4.00;4.00;;;;;24.79;41.60;99666.34;5056339;28;45367;-61
2022/06/11 11:00:13;;;;;;;;;4.75;4.75;;;;;24.90;42.15;99662.69;5045342;28;46420;-61
2022/06/11 11:02:49;;;;;;;;;4.20;4.20;;;;;24.98;42.51;99663.69;5054116;28;45491;-60
2022/06/11 11:05:18;;;;;;;;;5.00;5.00;;;;;25.07;42.22;99661.19;5063134;28;45579;-60
2022/06/11 11:07:59;;;;;;;;;4.60;4.00;;;;;25.12;42.38;99659.78;5055074;28;45547;-61
2022/06/11 11:10:36;;;;;;;;;3.80;3.80;;;;;25.17;41.91;99643.97;5052711;28;45496;-60
2022/06/11 11:13:22;;;;;;;;;4.80;4.40;;;;;25.20;41.77;99654.50;5067228;28;46411;-61
2022/06/11 11:16:19;;;;;;;;;5.40;5.40;;;;;25.24;41.61;99642.44;5060974;28;45396;-60
2022/06/11 11:18:47;;;;;;;;;4.40;4.40;;;;;25.30;41.82;99647.25;5057488;28;45763;-61
2022/06/11 11:21:21;;;;;;;;;4.40;4.40;;;;;25.34;41.41;99648.69;5063298;28;45512;-61
2022/06/11 11:23:50;;;;;;;;;4.00;4.00;;;;;25.42;41.62;99636.31;5067141;28;45593;-61
2022/06/11 11:26:35;;;;;;;;;3.80;3.80;;;;;25.48;41.63;99635.72;5059769;28;45384;-61
2022/06/11 11:29:27;;;;;;;;;4.60;3.40;;;;;25.54;41.06;99641.44;5057036;28;45531;-60
2022/06/11 11:31:57;;;;;;;;;6.00;4.00;;;;;25.60;41.48;99640.00;5060057;28;45584;-61
2022/06/11 11:34:29;;;;;;;;;3.40;3.00;;;;;25.66;41.72;99632.19;5061129;28;45456;-60
2022/06/11 11:37:14;;;;;;;;;5.20;5.00;;;;;25.74;41.36;99634.19;5058726;28;45648;-60
2022/06/11 11:40:02;;;;;;;;;3.80;3.80;;;;;25.82;40.95;99630.72;5038560;28;45603;-61
2022/06/11 11:42:38;;;;;;;;;3.80;3.80;;;;;25.89;41.43;99623.75;5063141;28;45379;-61
2022/06/11 11:45:59;;;;;;;;;4.80;4.00;;;;;26.01;40.89;99626.13;5056888;28;46811;-61
2022/06/11 11:48:35;;;;;;;;;3.80;3.80;;;;;26.15;40.00;99619.38;5052510;28;45406;-61
2022/06/11 11:51:32;;;;;;;;;3.80;3.80;;;;;26.22;39.92;99628.63;5060973;28;45446;-61
2022/06/11 11:53:59;;;;;;;;;5.20;3.80;;;;;26.25;40.15;99620.22;5054098;28;45548;-61
2022/06/11 11:56:33;;;;;;;;;3.60;3.60;;;;;26.30;39.58;99611.72;5059323;28;45679;-60
2022/06/11 11:59:23;;;;;;;;;4.00;4.00;;;;;26.40;40.33;99610.66;5065726;28;45502;-61